Time;durP1;ratioP1;P1;durP2;ratioP2;P2;SDS_P1;SDS_P2;PMS_P1;PMS_P2;Temp;Humidity;BMP_temperature;BMP_pressure;BME280_temperature;BME280_humidity;BME280_pressure;Samples;Min_cycle;Max_cycle;Signal;HPM_P1;HPM_P2
2023/04/19 00:02:12;;;;;;;;;;;;;;;9.86;100.00;96439.25;5095560;28;19973;-87
2023/04/19 00:04:39;;;;;;;;;;;;;;;9.90;100.00;96436.06;5101108;28;20412;-86
2023/04/19 00:07:07;;;;;;;;;;;;;;;9.86;100.00;96438.41;5104708;28;19947;-87
2023/04/19 00:09:34;;;;;;;;;;;;;;;9.79;100.00;96441.16;5107342;28;20057;-86
2023/04/19 00:12:01;;;;;;;;;;;;;;;9.70;100.00;96429.00;5098060;28;20007;-86
2023/04/19 00:14:27;;;;;;;;;;;;;;;9.64;100.00;96439.88;5108586;28;19951;-86
2023/04/19 00:16:54;;;;;;;;;;;;;;;9.63;100.00;96440.91;5102013;28;19958;-86
2023/04/19 00:19:22;;;;;;;;;;;;;;;9.64;100.00;96435.28;5099118;28;19949;-86
2023/04/19 00:21:49;;;;;;;;;;;;;;;9.65;100.00;96436.94;5107216;28;19956;-86
2023/04/19 00:24:16;;;;;;;;;;;;;;;9.65;100.00;96439.66;5120313;27;19969;-86
2023/04/19 00:26:43;;;;;;;;;;;;;;;9.66;100.00;96435.91;5109156;28;20033;-86
2023/04/19 00:29:09;;;;;;;;;;;;;;;9.64;100.00;96429.91;5097441;28;19954;-87
2023/04/19 00:31:38;;;;;;;;;;;;;;;9.64;100.00;96432.59;5095099;28;19947;-87
2023/04/19 00:34:06;;;;;;;;;;;;;;;9.66;100.00;96438.59;5103682;28;19953;-86
2023/04/19 00:36:34;;;;;;;;;;;;;;;9.67;100.00;96442.13;5105367;28;19941;-86
2023/04/19 00:39:01;;;;;;;;;;;;;;;9.61;100.00;96443.03;5096790;28;19947;-86
2023/04/19 00:41:28;;;;;;;;;;;;;;;9.64;100.00;96438.00;5104409;28;19948;-86
2023/04/19 00:43:54;;;;;;;;;;;;;;;9.62;100.00;96432.00;5101210;28;20041;-86
2023/04/19 00:46:22;;;;;;;;;;;;;;;9.61;100.00;96437.63;5109465;28;20043;-87
2023/04/19 00:48:49;;;;;;;;;;;;;;;9.65;100.00;96433.44;5101182;28;19949;-86
2023/04/19 00:51:16;;;;;;;;;;;;;;;9.65;100.00;96431.56;5111370;28;19962;-86
2023/04/19 00:53:45;;;;;;;;;;;;;;;9.57;100.00;96423.75;5112917;28;19954;-86
2023/04/19 00:56:13;;;;;;;;;;;;;;;9.54;100.00;96437.66;5104613;28;19953;-86
2023/04/19 00:58:40;;;;;;;;;;;;;;;9.54;100.00;96431.44;5111057;28;20055;-86
2023/04/19 01:01:07;;;;;;;;;;;;;;;9.56;100.00;96429.38;5102576;28;19959;-86
2023/04/19 01:03:35;;;;;;;;;;;;;;;9.53;100.00;96430.63;5111050;28;20044;-86
2023/04/19 01:06:02;;;;;;;;;;;;;;;9.49;100.00;96430.25;5113748;28;20075;-85
2023/04/19 01:08:28;;;;;;;;;;;;;;;9.44;100.00;96437.38;5113015;27;19949;-87
2023/04/19 01:10:56;;;;;;;;;;;;;;;9.38;100.00;96432.84;5109674;28;20001;-86
2023/04/19 01:13:23;;;;;;;;;;;;;;;9.31;100.00;96429.38;5114248;28;19959;-86
2023/04/19 01:15:50;;;;;;;;;;;;;;;9.29;100.00;96428.78;5109857;28;20031;-86
2023/04/19 01:18:21;;;;;;;;;;;;;;;9.30;100.00;96425.88;5101115;28;19985;-86
2023/04/19 01:20:48;;;;;;;;;;;;;;;9.28;100.00;96427.13;5115655;28;19986;-86
2023/04/19 01:23:16;;;;;;;;;;;;;;;9.22;100.00;96433.41;5114313;28;20059;-86
2023/04/19 01:25:43;;;;;;;;;;;;;;;9.16;100.00;96428.88;5107967;28;19956;-86
2023/04/19 01:28:10;;;;;;;;;;;;;;;9.02;100.00;96423.59;5105392;27;19954;-86
2023/04/19 01:30:37;;;;;;;;;;;;;;;8.97;100.00;96420.75;5108275;28;19950;-86
2023/04/19 01:33:04;;;;;;;;;;;;;;;9.00;100.00;96422.19;5113039;28;19934;-86
2023/04/19 01:35:30;;;;;;;;;;;;;;;9.06;100.00;96424.81;5112844;28;19932;-86
2023/04/19 01:37:57;;;;;;;;;;;;;;;9.15;100.00;96414.59;5111666;28;19930;-86
2023/04/19 01:40:26;;;;;;;;;;;;;;;9.15;100.00;96422.69;5109501;28;19924;-86
2023/04/19 01:42:53;;;;;;;;;;;;;;;9.08;100.00;96414.66;5105773;28;19972;-86
2023/04/19 01:45:20;;;;;;;;;;;;;;;9.05;100.00;96416.94;5110816;28;19953;-86
2023/04/19 01:47:50;;;;;;;;;;;;;;;9.05;100.00;96415.09;5110168;28;19942;-86
2023/04/19 01:50:17;;;;;;;;;;;;;;;9.11;100.00;96416.88;5107646;27;19963;-86
2023/04/19 01:52:44;;;;;;;;;;;;;;;9.16;100.00;96408.16;5105441;28;19928;-86
2023/04/19 01:55:10;;;;;;;;;;;;;;;9.16;100.00;96413.56;5125392;27;20010;-86
2023/04/19 01:57:38;;;;;;;;;;;;;;;9.16;100.00;96412.72;5107786;28;19928;-86
2023/04/19 02:00:06;;;;;;;;;;;;;;;9.15;100.00;96409.22;5110034;28;19931;-86
2023/04/19 02:02:40;;;;;;;;;;;;;;;9.11;100.00;96411.50;5103044;27;19928;-86
2023/04/19 02:05:08;;;;;;;;;;;;;;;9.03;100.00;96411.78;5117527;27;19930;-86
2023/04/19 02:07:34;;;;;;;;;;;;;;;9.01;100.00;96411.19;5101534;28;19985;-86
2023/04/19 02:10:01;;;;;;;;;;;;;;;9.09;100.00;96413.63;5111559;27;19925;-86
2023/04/19 02:12:29;;;;;;;;;;;;;;;9.19;100.00;96407.72;5116272;27;20110;-86
2023/04/19 02:14:58;;;;;;;;;;;;;;;9.20;100.00;96408.53;5107803;28;19998;-86
2023/04/19 02:17:29;;;;;;;;;;;;;;;9.17;100.00;96406.31;5107693;28;19927;-86
2023/04/19 02:19:58;;;;;;;;;;;;;;;9.12;100.00;96406.94;5106605;28;19924;-86
2023/04/19 02:22:26;;;;;;;;;;;;;;;8.99;100.00;96413.28;5105038;27;20119;-86
2023/04/19 02:24:54;;;;;;;;;;;;;;;8.90;100.00;96411.88;5106585;28;19924;-86
2023/04/19 02:27:27;;;;;;;;;;;;;;;8.88;100.00;96405.88;5108407;28;20035;-86
2023/04/19 02:29:55;;;;;;;;;;;;;;;8.86;100.00;96407.13;5120770;27;20022;-86
2023/04/19 02:32:23;;;;;;;;;;;;;;;8.83;100.00;96408.41;5096320;28;19924;-86
2023/04/19 02:34:50;;;;;;;;;;;;;;;8.87;100.00;96409.63;5108301;28;19928;-85
2023/04/19 02:37:17;;;;;;;;;;;;;;;8.85;100.00;96400.09;5104096;28;19956;-86
2023/04/19 02:39:44;;;;;;;;;;;;;;;8.88;100.00;96415.84;5105353;28;19974;-86
2023/04/19 02:42:11;;;;;;;;;;;;;;;8.92;100.00;96406.28;5109931;28;19987;-86
2023/04/19 02:44:38;;;;;;;;;;;;;;;8.96;100.00;96405.63;5105646;28;19939;-86
2023/04/19 02:47:05;;;;;;;;;;;;;;;8.95;100.00;96409.34;5108296;28;19924;-87
2023/04/19 02:49:35;;;;;;;;;;;;;;;8.92;100.00;96406.28;5098476;28;19938;-85
2023/04/19 02:52:03;;;;;;;;;;;;;;;8.87;100.00;96406.09;5107020;28;20149;-86
2023/04/19 02:54:32;;;;;;;;;;;;;;;8.83;100.00;96410.28;5107368;28;19959;-87
2023/04/19 02:56:58;;;;;;;;;;;;;;;8.76;100.00;96407.66;5110520;28;20067;-86
2023/04/19 02:59:25;;;;;;;;;;;;;;;8.71;100.00;96400.22;5105670;27;19924;-86
2023/04/19 03:01:52;;;;;;;;;;;;;;;8.71;100.00;96404.75;5110509;28;19927;-86
2023/04/19 03:04:20;;;;;;;;;;;;;;;8.67;100.00;96399.00;5109571;28;19971;-86
2023/04/19 03:06:49;;;;;;;;;;;;;;;8.73;100.00;96402.69;5107171;28;19924;-87
2023/04/19 03:09:15;;;;;;;;;;;;;;;8.73;100.00;96402.69;5094562;28;19996;-86
2023/04/19 03:11:42;;;;;;;;;;;;;;;8.78;100.00;96404.72;5100615;28;19980;-85
2023/04/19 03:14:09;;;;;;;;;;;;;;;8.80;100.00;96405.31;5110466;28;19930;-86
2023/04/19 03:16:38;;;;;;;;;;;;;;;8.85;100.00;96395.53;5102988;28;19924;-86
2023/04/19 03:19:05;;;;;;;;;;;;;;;8.84;100.00;96407.38;5106327;28;19924;-85
2023/04/19 03:21:38;;;;;;;;;;;;;;;8.80;100.00;96398.06;5110434;28;19942;-86
2023/04/19 03:24:06;;;;;;;;;;;;;;;8.76;100.00;96391.50;5105357;28;20022;-86
2023/04/19 03:26:35;;;;;;;;;;;;;;;8.76;100.00;96396.06;5105558;28;19927;-86
2023/04/19 03:29:03;;;;;;;;;;;;;;;8.72;100.00;96396.47;5105175;28;19930;-85
2023/04/19 03:31:33;;;;;;;;;;;;;;;8.71;100.00;96391.31;5103843;28;19924;-86
2023/04/19 03:34:00;;;;;;;;;;;;;;;8.69;100.00;96388.81;5119873;27;19924;-86
2023/04/19 03:36:32;;;;;;;;;;;;;;;8.74;100.00;96390.88;5128192;27;19923;-86
2023/04/19 03:38:59;;;;;;;;;;;;;;;8.78;100.00;96392.06;5106316;28;19938;-85
2023/04/19 03:41:28;;;;;;;;;;;;;;;8.79;100.00;96391.03;5103016;28;20002;-85
2023/04/19 03:44:05;;;;;;;;;;;;;;;8.80;100.00;96390.00;5102353;28;19935;-85
2023/04/19 03:46:33;;;;;;;;;;;;;;;8.79;100.00;96387.53;5108790;28;19931;-85
2023/04/19 03:49:00;;;;;;;;;;;;;;;8.86;100.00;96390.97;5102244;28;19936;-85
2023/04/19 03:51:28;;;;;;;;;;;;;;;8.86;100.00;96381.03;5108341;28;19924;-85
2023/04/19 03:53:54;;;;;;;;;;;;;;;8.91;100.00;96391.16;5103679;28;19938;-85
2023/04/19 03:56:22;;;;;;;;;;;;;;;8.97;100.00;96390.28;5106812;28;20035;-86
2023/04/19 03:58:52;;;;;;;;;;;;;;;9.01;100.00;96396.91;5105038;28;20008;-85
2023/04/19 04:01:19;;;;;;;;;;;;;;;9.05;100.00;96390.84;5102397;28;19934;-85
2023/04/19 04:03:45;;;;;;;;;;;;;;;9.07;100.00;96388.75;5108670;28;19924;-85
2023/04/19 04:06:13;;;;;;;;;;;;;;;9.06;100.00;96386.28;5104021;28;19924;-86
2023/04/19 04:08:40;;;;;;;;;;;;;;;9.05;100.00;96382.75;5108656;28;19930;-86
2023/04/19 04:11:06;;;;;;;;;;;;;;;9.03;100.00;96382.16;5105525;28;19969;-85
2023/04/19 04:13:33;;;;;;;;;;;;;;;9.05;100.00;96379.25;5095857;28;20050;-85
2023/04/19 04:16:11;;;;;;;;;;;;;;;9.03;100.00;96384.84;5107820;28;20022;-86
2023/04/19 04:18:39;;;;;;;;;;;;;;;9.09;100.00;96385.84;5094039;28;19928;-86
2023/04/19 04:21:09;;;;;;;;;;;;;;;9.13;100.00;96389.75;5108313;28;19931;-85
2023/04/19 04:23:40;;;;;;;;;;;;;;;9.17;100.00;96392.84;5100789;28;20038;-86
2023/04/19 04:26:12;;;;;;;;;;;;;;;9.17;100.00;96392.84;5105633;28;19934;-86
2023/04/19 04:28:57;;;;;;;;;;;;;;;9.18;100.00;96397.19;5104034;28;19923;-85
2023/04/19 04:31:26;;;;;;;;;;;;;;;9.17;100.00;96392.84;5100508;28;19924;-85
2023/04/19 04:33:54;;;;;;;;;;;;;;;9.14;100.00;96391.41;5100429;28;19931;-85
2023/04/19 04:36:21;;;;;;;;;;;;;;;9.18;100.00;96400.69;5100955;28;19931;-85
2023/04/19 04:38:50;;;;;;;;;;;;;;;9.15;100.00;96409.22;5105711;28;19936;-86
2023/04/19 04:41:19;;;;;;;;;;;;;;;9.15;100.00;96401.13;5105343;28;20002;-85
2023/04/19 04:43:50;;;;;;;;;;;;;;;9.17;100.00;96403.59;5106558;28;19949;-86
2023/04/19 04:46:19;;;;;;;;;;;;;;;9.21;100.00;96405.63;5104495;28;19924;-86
2023/04/19 04:48:47;;;;;;;;;;;;;;;9.22;100.00;96406.44;5100096;28;19924;-85
2023/04/19 04:51:14;;;;;;;;;;;;;;;9.23;100.00;96408.09;5106495;28;19934;-87
2023/04/19 04:53:44;;;;;;;;;;;;;;;9.22;100.00;96401.88;5124763;27;19928;-86
2023/04/19 04:56:11;;;;;;;;;;;;;;;9.18;100.00;96407.94;5105571;28;19937;-87
2023/04/19 04:58:38;;;;;;;;;;;;;;;9.17;100.00;96406.31;5100316;28;19950;-86
2023/04/19 05:01:08;;;;;;;;;;;;;;;9.19;100.00;96402.31;5102056;28;19962;-86
2023/04/19 05:03:39;;;;;;;;;;;;;;;9.18;100.00;96407.94;5102422;28;19969;-86
2023/04/19 05:06:11;;;;;;;;;;;;;;;9.17;100.00;96403.59;5102136;28;19956;-86
2023/04/19 05:08:38;;;;;;;;;;;;;;;9.20;100.00;96409.38;5098869;28;19928;-86
2023/04/19 05:11:15;;;;;;;;;;;;;;;9.25;100.00;96411.41;5105203;28;19924;-87
2023/04/19 05:13:42;;;;;;;;;;;;;;;9.24;100.00;96409.75;5106133;28;19936;-87
2023/04/19 05:16:09;;;;;;;;;;;;;;;9.20;100.00;96408.53;5103632;28;19935;-87
2023/04/19 05:18:37;;;;;;;;;;;;;;;9.17;100.00;96412.50;5106723;28;19927;-86
2023/04/19 05:21:05;;;;;;;;;;;;;;;9.15;100.00;96417.28;5096710;28;19934;-86
2023/04/19 05:23:34;;;;;;;;;;;;;;;9.15;100.00;96416.47;5102088;28;19924;-88
2023/04/19 05:26:01;;;;;;;;;;;;;;;9.19;100.00;96418.47;5095449;28;19925;-86
2023/04/19 05:28:28;;;;;;;;;;;;;;;9.22;100.00;96414.53;5103499;28;19931;-86
2023/04/19 05:31:09;;;;;;;;;;;;;;;9.22;100.00;96414.53;5109922;28;19923;-85
2023/04/19 05:33:44;;;;;;;;;;;;;;;9.24;100.00;96409.75;5104453;28;19939;-85
2023/04/19 05:36:11;;;;;;;;;;;;;;;9.27;100.00;96417.41;5107867;28;19934;-85
2023/04/19 05:38:40;;;;;;;;;;;;;;;9.27;100.00;96412.03;5108127;28;19927;-85
2023/04/19 05:41:07;;;;;;;;;;;;;;;9.20;100.00;96412.06;5101510;28;19930;-85
2023/04/19 05:43:33;;;;;;;;;;;;;;;9.15;100.00;96408.38;5115011;27;19935;-86
2023/04/19 05:46:00;;;;;;;;;;;;;;;9.18;100.00;96407.94;5103074;28;19927;-85
2023/04/19 05:48:27;;;;;;;;;;;;;;;9.19;100.00;96405.00;5109786;28;19994;-85
2023/04/19 05:51:20;;;;;;;;;;;;;;;9.28;100.00;96408.25;5103388;28;19935;-85
2023/04/19 05:54:15;;;;;;;;;;;;;;;9.34;100.00;96410.09;5103781;28;19955;-86
2023/04/19 05:56:45;;;;;;;;;;;;;;;9.36;100.00;96413.38;5102258;28;20169;-86
2023/04/19 05:59:13;;;;;;;;;;;;;;;9.41;100.00;96405.47;5110021;28;20014;-85
2023/04/19 06:01:40;;;;;;;;;;;;;;;9.48;100.00;96414.31;5105791;28;19955;-86
2023/04/19 06:04:07;;;;;;;;;;;;;;;9.58;100.00;96409.25;5109058;28;19928;-86
2023/04/19 06:06:36;;;;;;;;;;;;;;;9.64;100.00;96411.03;5096565;28;19924;-86
2023/04/19 06:09:03;;;;;;;;;;;;;;;9.69;100.00;96415.78;5098720;28;19935;-86
2023/04/19 06:11:32;;;;;;;;;;;;;;;9.69;100.00;96407.69;5105756;28;19944;-86
2023/04/19 06:13:59;;;;;;;;;;;;;;;9.73;100.00;96409.69;5105415;28;19939;-86
2023/04/19 06:16:26;;;;;;;;;;;;;;;9.78;100.00;96419.84;5105667;28;20018;-86
2023/04/19 06:18:53;;;;;;;;;;;;;;;9.84;100.00;96416.22;5102184;28;19951;-86
2023/04/19 06:21:20;;;;;;;;;;;;;;;9.90;100.00;96414.50;5103787;28;19923;-86
2023/04/19 06:23:47;;;;;;;;;;;;;;;9.95;100.00;96411.97;5093653;28;19964;-86
2023/04/19 06:26:14;;;;;;;;;;;;;;;9.99;100.00;96423.94;5100726;28;19928;-85
2023/04/19 06:28:42;;;;;;;;;;;;;;;9.98;100.00;96420.44;5105135;28;19928;-86
2023/04/19 06:31:08;;;;;;;;;;;;;;;9.95;100.00;96420.06;5107357;28;19934;-86
2023/04/19 06:33:35;;;;;;;;;;;;;;;9.92;100.00;96418.63;5107438;28;19976;-86
2023/04/19 06:36:02;;;;;;;;;;;;;;;9.95;100.00;96414.66;5098251;28;19977;-86
2023/04/19 06:38:29;;;;;;;;;;;;;;;9.99;100.00;96413.16;5105545;28;19924;-85
2023/04/19 06:40:56;;;;;;;;;;;;;;;10.03;100.00;96419.75;5104169;28;19928;-86
2023/04/19 06:43:23;;;;;;;;;;;;;;;10.11;100.00;96416.75;5101897;28;19930;-85
2023/04/19 06:45:57;;;;;;;;;;;;;;;10.19;100.00;96413.78;5102625;27;19928;-85
2023/04/19 06:48:24;;;;;;;;;;;;;;;10.21;100.00;96415.19;5105463;28;19923;-86
2023/04/19 06:50:51;;;;;;;;;;;;;;;10.21;100.00;96411.66;5096684;28;19994;-85
2023/04/19 06:53:18;;;;;;;;;;;;;;;10.24;100.00;96417.44;5095891;28;19987;-86
2023/04/19 06:55:45;;;;;;;;;;;;;;;10.30;100.00;96415.72;5103723;28;19932;-86
2023/04/19 06:58:12;;;;;;;;;;;;;;;10.32;100.00;96424.41;5110949;28;19949;-86
2023/04/19 07:00:38;;;;;;;;;;;;;;;10.29;100.00;96421.34;5102342;28;19931;-85
2023/04/19 07:03:07;;;;;;;;;;;;;;;10.33;100.00;96431.47;5099688;28;19976;-85
2023/04/19 07:05:33;;;;;;;;;;;;;;;10.41;100.00;96422.22;5101978;28;19927;-86
2023/04/19 07:08:00;;;;;;;;;;;;;;;10.43;100.00;96426.34;5105909;27;19932;-86
2023/04/19 07:10:27;;;;;;;;;;;;;;;10.48;100.00;96423.78;5107188;28;19924;-85
2023/04/19 07:12:54;;;;;;;;;;;;;;;10.54;100.00;96417.50;5103946;28;19975;-85
2023/04/19 07:15:20;;;;;;;;;;;;;;;10.57;100.00;96421.59;5095462;28;19944;-85
2023/04/19 07:17:47;;;;;;;;;;;;;;;10.56;100.00;96423.47;5118257;27;19923;-85
2023/04/19 07:20:15;;;;;;;;;;;;;;;10.60;100.00;96424.66;5109482;28;19931;-86
2023/04/19 07:22:42;;;;;;;;;;;;;;;10.63;100.00;96415.31;5110923;27;19955;-85
2023/04/19 07:25:09;;;;;;;;;;;;;;;10.66;100.00;96422.09;5098844;28;19939;-85
2023/04/19 07:27:36;;;;;;;;;;;;;;;10.64;100.00;96422.31;5101033;28;19932;-85
2023/04/19 07:30:03;;;;;;;;;;;;;;;10.61;100.00;96425.50;5098774;28;19924;-85
2023/04/19 07:32:31;;;;;;;;;;;;;;;10.61;100.00;96423.63;5109355;28;19928;-85
2023/04/19 07:34:57;;;;;;;;;;;;;;;10.60;100.00;96416.56;5100188;28;19930;-85
2023/04/19 07:37:25;;;;;;;;;;;;;;;10.64;100.00;96422.31;5108619;28;19924;-86
2023/04/19 07:39:52;;;;;;;;;;;;;;;10.66;100.00;96420.22;5103325;28;19924;-85
2023/04/19 07:42:19;;;;;;;;;;;;;;;10.70;100.00;96421.44;5106593;28;19923;-85
2023/04/19 07:44:45;;;;;;;;;;;;;;;10.75;100.00;96423.44;5105024;28;19938;-86
2023/04/19 07:47:12;;;;;;;;;;;;;;;10.72;100.00;96423.91;5116015;27;19967;-86
2023/04/19 07:49:39;;;;;;;;;;;;;;;10.71;100.00;96422.25;5105631;28;19952;-85
2023/04/19 07:52:07;;;;;;;;;;;;;;;10.64;100.00;96422.31;5103426;28;19933;-86
2023/04/19 07:54:38;;;;;;;;;;;;;;;10.65;100.00;96429.38;5109215;28;19937;-85
2023/04/19 07:57:05;;;;;;;;;;;;;;;10.66;100.00;96425.63;5104042;28;19927;-85
2023/04/19 07:59:32;;;;;;;;;;;;;;;10.68;100.00;96433.50;5098834;28;20002;-85
2023/04/19 08:01:59;;;;;;;;;;;;;;;10.69;100.00;96424.34;5095531;28;19924;-85
2023/04/19 08:04:26;;;;;;;;;;;;;;;10.74;100.00;96421.78;5104517;27;19927;-85
2023/04/19 08:06:53;;;;;;;;;;;;;;;10.81;100.00;96428.72;5110853;28;19931;-85
2023/04/19 08:09:19;;;;;;;;;;;;;;;10.83;100.00;96420.41;5097055;28;19936;-85
2023/04/19 08:11:48;;;;;;;;;;;;;;;10.89;100.00;96424.88;5095446;28;19989;-85
2023/04/19 08:14:14;;;;;;;;;;;;;;;10.92;100.00;96425.25;5117758;27;19946;-85
2023/04/19 08:16:41;;;;;;;;;;;;;;;10.98;100.00;96428.91;5093921;28;19967;-85
2023/04/19 08:19:08;;;;;;;;;;;;;;;10.98;100.00;96428.91;5106376;28;19932;-85
2023/04/19 08:21:35;;;;;;;;;;;;;;;11.03;100.00;96423.66;5095343;28;19928;-85
2023/04/19 08:24:02;;;;;;;;;;;;;;;11.02;100.00;96421.16;5105107;28;19927;-86
2023/04/19 08:26:28;;;;;;;;;;;;;;;11.02;100.00;96424.69;5104853;28;19923;-85
2023/04/19 08:28:57;;;;;;;;;;;;;;;11.04;100.00;96421.75;5101535;28;19931;-85
2023/04/19 08:31:23;;;;;;;;;;;;;;;11.11;100.00;96422.47;5105722;28;19931;-85
2023/04/19 08:33:50;;;;;;;;;;;;;;;11.16;100.00;96411.78;5108219;28;19934;-85
2023/04/19 08:36:17;;;;;;;;;;;;;;;11.24;100.00;96417.69;5105187;28;19931;-85
2023/04/19 08:38:43;;;;;;;;;;;;;;;11.25;100.00;96416.63;5093518;28;19924;-86
2023/04/19 08:41:11;;;;;;;;;;;;;;;11.26;100.00;96407.47;5097025;28;19971;-85
2023/04/19 08:43:41;;;;;;;;;;;;;;;11.23;100.00;96416.03;5105767;28;19935;-85
2023/04/19 08:46:11;;;;;;;;;;;;;;;11.27;100.00;96411.00;5107824;28;19924;-85
2023/04/19 08:48:39;;;;;;;;;;;;;;;11.25;100.00;96408.53;5103716;28;19924;-85
2023/04/19 08:51:06;;;;;;;;;;;;;;;11.34;100.00;96412.53;5104739;28;19928;-84
2023/04/19 08:53:33;;;;;;;;;;;;;;;11.38;100.00;96416.44;5105402;28;19928;-84
2023/04/19 08:56:01;;;;;;;;;;;;;;;11.33;100.00;96419.00;5104234;28;19924;-85
2023/04/19 08:58:29;;;;;;;;;;;;;;;11.31;100.00;96423.00;5119291;28;19924;-85
2023/04/19 09:00:56;;;;;;;;;;;;;;;11.33;100.00;96421.69;5107929;28;19924;-86
2023/04/19 09:03:24;;;;;;;;;;;;;;;11.38;100.00;96416.44;5106755;28;20023;-85
2023/04/19 09:05:51;;;;;;;;;;;;;;;11.41;100.00;96411.59;5108132;28;19931;-85
2023/04/19 09:08:22;;;;;;;;;;;;;;;11.47;100.00;96410.69;5107790;28;19924;-85
2023/04/19 09:10:53;;;;;;;;;;;;;;;11.46;100.00;96409.84;5107564;28;19971;-85
2023/04/19 09:13:20;;;;;;;;;;;;;;;11.52;100.00;96398.09;5111247;28;19951;-85
2023/04/19 09:15:46;;;;;;;;;;;;;;;11.61;100.00;96401.25;5104097;28;19993;-85
2023/04/19 09:18:14;;;;;;;;;;;;;;;11.64;100.00;96395.41;5106272;28;19970;-85
2023/04/19 09:20:43;;;;;;;;;;;;;;;11.70;100.00;96394.44;5108596;28;19934;-85
2023/04/19 09:23:11;;;;;;;;;;;;;;;11.73;100.00;96391.28;5105887;28;19992;-85
2023/04/19 09:25:38;;;;;;;;;;;;;;;11.70;100.00;96392.56;5102813;28;19928;-85
2023/04/19 09:28:11;;;;;;;;;;;;;;;11.78;100.00;96391.41;5109644;28;19928;-85
2023/04/19 09:30:39;;;;;;;;;;;;;;;11.78;100.00;96383.28;5106386;28;19923;-85
2023/04/19 09:33:06;;;;;;;;;;;;;;;11.81;100.00;96385.53;5102231;28;20097;-85
2023/04/19 09:35:44;;;;;;;;;;;;;;;11.91;100.00;96382.22;5103149;28;19934;-85
2023/04/19 09:38:11;;;;;;;;;;;;;;;11.95;100.00;96380.69;5105322;28;19927;-85
2023/04/19 09:40:39;;;;;;;;;;;;;;;11.97;100.00;96376.69;5108498;28;19924;-85
2023/04/19 09:43:06;;;;;;;;;;;;;;;12.00;100.00;96372.66;5107859;28;19928;-85
2023/04/19 09:45:42;;;;;;;;;;;;;;;12.01;100.00;96367.00;5108229;28;19927;-85
2023/04/19 09:48:10;;;;;;;;;;;;;;;12.05;100.00;96368.19;5105294;28;19927;-86
2023/04/19 09:50:50;;;;;;;;;;;;;;;12.09;100.00;96366.66;5102390;28;19927;-82
2023/04/19 09:53:19;;;;;;;;;;;;;;;12.22;100.00;96364.75;5105747;28;19981;-85
2023/04/19 09:55:46;;;;;;;;;;;;;;;12.24;100.00;96349.09;5111048;28;19932;-84
2023/04/19 09:58:13;;;;;;;;;;;;;;;12.27;100.00;96349.41;5111358;28;20008;-85
2023/04/19 10:00:40;;;;;;;;;;;;;;;12.37;100.00;96335.25;5108753;28;19923;-85
2023/04/19 10:03:09;;;;;;;;;;;;;;;12.42;100.00;96335.34;5102020;28;19943;-85
2023/04/19 10:05:36;;;;;;;;;;;;;;;12.40;100.00;96343.72;5107472;28;19923;-85
2023/04/19 10:08:04;;;;;;;;;;;;;;;12.43;100.00;96339.69;5112019;28;19945;-85
2023/04/19 10:10:32;;;;;;;;;;;;;;;12.49;100.00;96334.16;5111089;28;19928;-85
2023/04/19 10:12:59;;;;;;;;;;;;;;;12.57;100.00;96330.22;5102801;28;19923;-85
2023/04/19 10:15:27;;;;;;;;;;;;;;;12.63;100.00;96326.53;5102230;28;19924;-85
2023/04/19 10:17:54;;;;;;;;;;;;;;;12.71;100.00;96328.84;5099843;28;19949;-85
2023/04/19 10:20:23;;;;;;;;;;;;;;;12.75;100.00;96324.59;5109419;28;20099;-85
2023/04/19 10:22:50;;;;;;;;;;;;;;;12.82;100.00;96322.56;5107584;28;19992;-85
2023/04/19 10:25:16;;;;;;;;;;;;;;;12.88;100.00;96315.31;5113562;28;19928;-85
2023/04/19 10:27:47;;;;;;;;;;;;;;;12.89;100.00;96325.91;5104635;28;19924;-85
2023/04/19 10:30:18;;;;;;;;;;;;;;;12.88;100.00;96321.56;5099749;28;19931;-85
2023/04/19 10:32:45;;;;;;;;;;;;;;;12.83;100.00;96316.06;5096955;28;19950;-85
2023/04/19 10:35:17;;;;;;;;;;;;;;;12.88;100.00;96316.13;5110330;27;19931;-85
2023/04/19 10:37:59;;;;;;;;;;;;;;;12.87;100.00;96309.06;5104447;28;20049;-85
2023/04/19 10:40:44;;;;;;;;;;;;;;;12.91;100.00;96304.00;5119878;27;19956;-85
2023/04/19 10:43:17;;;;;;;;;;;;;;;12.99;100.00;96300.88;5100215;27;19970;-87
2023/04/19 10:45:45;;;;;;;;;;;;;;;12.98;100.00;96292.97;5101937;28;19978;-86
2023/04/19 10:48:29;;;;;;;;;;;;;;;13.07;100.00;96296.94;5103792;27;19976;-87
2023/04/19 10:50:59;;;;;;;;;;;;;;;13.08;100.00;96287.72;5107079;28;19956;-87
2023/04/19 10:53:45;;;;;;;;;;;;;;;13.19;100.00;96278.69;5104086;28;20011;-87
2023/04/19 10:56:12;;;;;;;;;;;;;;;13.30;100.00;96276.97;5094730;28;19958;-86
2023/04/19 10:58:58;;;;;;;;;;;;;;;13.39;100.00;96270.88;5097991;28;20004;-86
2023/04/19 11:01:38;;;;;;;;;;;;;;;13.63;100.00;96258.72;5093536;28;19955;-88
2023/04/19 11:04:06;;;;;;;;;;;;;;;13.85;100.00;96263.34;5100384;28;19955;-87
2023/04/19 11:06:32;;;;;;;;;;;;;;;13.94;100.00;96259.13;5097550;28;19961;-86
2023/04/19 11:09:01;;;;;;;;;;;;;;;13.97;100.00;96264.03;5100759;28;19952;-87
2023/04/19 11:11:28;;;;;;;;;;;;;;;13.95;98.29;96258.84;5105055;28;19958;-87
2023/04/19 11:13:56;;;;;;;;;;;;;;;14.10;97.96;96247.34;5099651;28;19961;-87
2023/04/19 11:16:23;;;;;;;;;;;;;;;14.36;98.64;96245.72;5109265;28;19947;-85
2023/04/19 11:18:51;;;;;;;;;;;;;;;14.45;94.73;96246.94;5092339;28;19946;-85
2023/04/19 11:21:19;;;;;;;;;;;;;;;14.51;95.32;96253.22;5091365;28;20036;-85
2023/04/19 11:23:46;;;;;;;;;;;;;;;14.60;94.42;96251.69;5092711;28;19950;-85
2023/04/19 11:26:13;;;;;;;;;;;;;;;14.76;91.13;96242.59;5102503;28;20063;-85
2023/04/19 11:28:40;;;;;;;;;;;;;;;15.03;89.02;96237.09;5108717;28;19961;-85
2023/04/19 11:31:06;;;;;;;;;;;;;;;15.35;90.05;96234.31;5108084;27;19967;-85
2023/04/19 11:33:33;;;;;;;;;;;;;;;15.46;89.89;96227.84;5106372;28;20020;-86
2023/04/19 11:36:02;;;;;;;;;;;;;;;15.60;89.79;96223.59;5099744;28;19971;-85
2023/04/19 11:38:29;;;;;;;;;;;;;;;15.88;85.55;96215.00;5104699;28;19959;-84
2023/04/19 11:40:59;;;;;;;;;;;;;;;15.92;87.74;96211.75;5106361;28;19943;-85
2023/04/19 11:43:32;;;;;;;;;;;;;;;15.94;88.24;96206.84;5103131;28;20045;-85
2023/04/19 11:46:04;;;;;;;;;;;;;;;16.17;86.52;96207.19;5099734;28;19972;-85
2023/04/19 11:48:31;;;;;;;;;;;;;;;16.33;86.59;96208.06;5096405;28;19955;-85
2023/04/19 11:50:59;;;;;;;;;;;;;;;16.53;84.10;96204.53;5101507;28;19956;-85
2023/04/19 11:53:28;;;;;;;;;;;;;;;16.66;82.87;96197.75;5101576;28;19950;-85
2023/04/19 11:55:56;;;;;;;;;;;;;;;16.87;82.37;96193.94;5104988;28;19946;-85
2023/04/19 11:58:28;;;;;;;;;;;;;;;16.98;75.75;96190.13;5103758;28;20058;-85
2023/04/19 12:00:57;;;;;;;;;;;;;;;16.70;74.88;96193.38;5106087;28;19951;-85
2023/04/19 12:03:24;;;;;;;;;;;;;;;16.54;76.00;96193.34;5096904;28;19982;-85
2023/04/19 12:05:54;;;;;;;;;;;;;;;16.58;76.84;96182.75;5096749;28;19946;-85
2023/04/19 12:08:31;;;;;;;;;;;;;;;16.67;76.43;96183.03;5104237;28;20005;-85
2023/04/19 12:10:59;;;;;;;;;;;;;;;16.44;77.09;96181.63;5101174;28;19952;-85
2023/04/19 12:13:25;;;;;;;;;;;;;;;16.52;75.37;96176.44;5100907;28;19971;-85
2023/04/19 12:15:52;;;;;;;;;;;;;;;16.90;76.83;96168.84;5104016;28;19949;-84
2023/04/19 12:18:19;;;;;;;;;;;;;;;17.01;74.64;96167.75;5105236;28;19950;-85
2023/04/19 12:20:47;;;;;;;;;;;;;;;16.95;78.88;96164.19;5098431;28;20006;-85
2023/04/19 12:23:14;;;;;;;;;;;;;;;17.00;78.15;96163.38;5103240;28;19974;-85
2023/04/19 12:25:43;;;;;;;;;;;;;;;16.89;76.33;96164.47;5093708;28;19980;-86
2023/04/19 12:28:10;;;;;;;;;;;;;;;16.85;78.12;96149.75;5104887;28;19996;-85
2023/04/19 12:30:39;;;;;;;;;;;;;;;16.73;77.66;96150.06;5105987;28;19947;-85
2023/04/19 12:33:06;;;;;;;;;;;;;;;16.85;78.03;96163.38;5102880;28;20043;-86
2023/04/19 12:35:34;;;;;;;;;;;;;;;16.97;76.25;96148.38;5100387;28;19977;-85
2023/04/19 12:38:01;;;;;;;;;;;;;;;16.80;76.07;96147.84;5103275;28;19972;-86
2023/04/19 12:40:29;;;;;;;;;;;;;;;16.98;76.97;96141.00;5105373;28;19945;-85
2023/04/19 12:42:57;;;;;;;;;;;;;;;16.96;76.36;96144.00;5109460;28;20062;-85
2023/04/19 12:45:24;;;;;;;;;;;;;;;17.14;76.87;96139.06;5108041;28;19949;-85
2023/04/19 12:47:51;;;;;;;;;;;;;;;17.11;76.55;96145.06;5106428;28;19959;-85
2023/04/19 12:50:17;;;;;;;;;;;;;;;17.12;75.94;96136.63;5106428;28;19949;-85